sensor_id;sensor_type;location;lat;lon;timestamp;pressure;altitude;pressure_sealevel;temperature;humidity
9059;BME280;4564;42.034;25.834;2022-08-14T00:00:53;99440.59;;;21.22;74.63
9059;BME280;4564;42.034;25.834;2022-08-14T00:03:20;99448.59;;;21.24;74.65
9059;BME280;4564;42.034;25.834;2022-08-14T00:05:47;99447.78;;;21.18;74.64
9059;BME280;4564;42.034;25.834;2022-08-14T00:08:14;99438.41;;;20.94;75.64
9059;BME280;4564;42.034;25.834;2022-08-14T00:10:41;99430.94;;;20.79;77.19
9059;BME280;4564;42.034;25.834;2022-08-14T00:13:08;99427.06;;;20.75;78.12
9059;BME280;4564;42.034;25.834;2022-08-14T00:15:37;99437.53;;;20.73;77.89
9059;BME280;4564;42.034;25.834;2022-08-14T00:18:04;99436.19;;;20.76;77.65
9059;BME280;4564;42.034;25.834;2022-08-14T00:20:32;99433.41;;;20.76;77.96
9059;BME280;4564;42.034;25.834;2022-08-14T00:22:59;99437.53;;;20.68;78.19
9059;BME280;4564;42.034;25.834;2022-08-14T00:25:26;99435.91;;;20.72;78.09
9059;BME280;4564;42.034;25.834;2022-08-14T00:27:53;99435.06;;;20.87;77.47
9059;BME280;4564;42.034;25.834;2022-08-14T00:30:20;99437.28;;;20.95;77.19
9059;BME280;4564;42.034;25.834;2022-08-14T00:32:48;99430.13;;;20.94;76.69
9059;BME280;4564;42.034;25.834;2022-08-14T00:35:15;99434.50;;;20.95;76.78
9059;BME280;4564;42.034;25.834;2022-08-14T00:37:42;99423.22;;;20.97;76.80
9059;BME280;4564;42.034;25.834;2022-08-14T00:40:11;99431.75;;;21.00;76.40
9059;BME280;4564;42.034;25.834;2022-08-14T00:42:39;99427.34;;;20.99;76.61
9059;BME280;4564;42.034;25.834;2022-08-14T00:45:06;99422.66;;;20.94;77.08
9059;BME280;4564;42.034;25.834;2022-08-14T00:47:33;99427.63;;;20.98;77.01
9059;BME280;4564;42.034;25.834;2022-08-14T00:50:03;99427.38;;;20.94;77.58
9059;BME280;4564;42.034;25.834;2022-08-14T00:52:31;99431.22;;;20.88;77.65
9059;BME280;4564;42.034;25.834;2022-08-14T00:54:58;99432.84;;;20.84;77.90
9059;BME280;4564;42.034;25.834;2022-08-14T00:57:25;99430.13;;;20.89;77.75
9059;BME280;4564;42.034;25.834;2022-08-14T00:59:52;99420.72;;;20.90;77.56
9059;BME280;4564;42.034;25.834;2022-08-14T01:02:20;99424.59;;;20.89;77.11
9059;BME280;4564;42.034;25.834;2022-08-14T01:04:50;99423.22;;;20.86;77.50
9059;BME280;4564;42.034;25.834;2022-08-14T01:07:18;99417.97;;;20.85;77.65
9059;BME280;4564;42.034;25.834;2022-08-14T01:09:46;99410.00;;;20.88;77.95
9059;BME280;4564;42.034;25.834;2022-08-14T01:12:13;99415.19;;;20.95;77.84
9059;BME280;4564;42.034;25.834;2022-08-14T01:14:40;99413.53;;;20.84;77.68
9059;BME280;4564;42.034;25.834;2022-08-14T01:17:07;99406.09;;;20.74;77.83
9059;BME280;4564;42.034;25.834;2022-08-14T01:19:33;99400.59;;;20.74;77.54
9059;BME280;4564;42.034;25.834;2022-08-14T01:22:19;99402.25;;;20.80;76.64
9059;BME280;4564;42.034;25.834;2022-08-14T01:24:46;99404.75;;;20.67;77.15
9059;BME280;4564;42.034;25.834;2022-08-14T01:27:13;99410.22;;;20.51;78.22
9059;BME280;4564;42.034;25.834;2022-08-14T01:29:42;99406.09;;;20.39;78.63
9059;BME280;4564;42.034;25.834;2022-08-14T01:32:09;99403.00;;;20.30;79.47
9059;BME280;4564;42.034;25.834;2022-08-14T01:34:35;99399.69;;;20.23;80.41
9059;BME280;4564;42.034;25.834;2022-08-14T01:37:02;99392.25;;;20.24;80.67
9059;BME280;4564;42.034;25.834;2022-08-14T01:39:30;99385.34;;;20.26;81.88
9059;BME280;4564;42.034;25.834;2022-08-14T01:41:58;99394.16;;;20.18;83.13
9059;BME280;4564;42.034;25.834;2022-08-14T01:44:26;99390.56;;;20.13;83.23
9059;BME280;4564;42.034;25.834;2022-08-14T01:46:54;99387.00;;;20.12;83.12
9059;BME280;4564;42.034;25.834;2022-08-14T01:49:23;99376.50;;;20.19;83.13
9059;BME280;4564;42.034;25.834;2022-08-14T01:51:49;99387.00;;;20.17;83.14
9059;BME280;4564;42.034;25.834;2022-08-14T01:54:18;99385.31;;;20.06;83.60
9059;BME280;4564;42.034;25.834;2022-08-14T01:56:47;99385.03;;;20.02;83.38
9059;BME280;4564;42.034;25.834;2022-08-14T01:59:20;99377.31;;;19.99;83.62
9059;BME280;4564;42.034;25.834;2022-08-14T02:01:48;99381.44;;;19.92;83.66
9059;BME280;4564;42.034;25.834;2022-08-14T02:04:16;99380.06;;;19.99;83.68
9059;BME280;4564;42.034;25.834;2022-08-14T02:06:44;99377.28;;;19.94;83.93
9059;BME280;4564;42.034;25.834;2022-08-14T02:09:10;99370.69;;;19.95;84.15
9059;BME280;4564;42.034;25.834;2022-08-14T02:11:37;99381.47;;;20.02;83.86
9059;BME280;4564;42.034;25.834;2022-08-14T02:14:06;99382.22;;;19.87;84.38
9059;BME280;4564;42.034;25.834;2022-08-14T02:16:34;99375.28;;;19.69;85.53
9059;BME280;4564;42.034;25.834;2022-08-14T02:19:04;99373.28;;;19.60;85.33
9059;BME280;4564;42.034;25.834;2022-08-14T02:21:31;99375.66;;;19.36;86.55
9059;BME280;4564;42.034;25.834;2022-08-14T02:23:58;99378.56;;;19.19;86.87
9059;BME280;4564;42.034;25.834;2022-08-14T02:26:27;99376.34;;;19.16;86.84
9059;BME280;4564;42.034;25.834;2022-08-14T02:28:55;99379.41;;;19.20;86.27
9059;BME280;4564;42.034;25.834;2022-08-14T02:31:25;99369.00;;;19.27;85.41
9059;BME280;4564;42.034;25.834;2022-08-14T02:33:57;99354.09;;;19.23;85.26
9059;BME280;4564;42.034;25.834;2022-08-14T02:36:24;99354.09;;;19.23;85.24
9059;BME280;4564;42.034;25.834;2022-08-14T02:38:51;99356.84;;;19.23;85.19
9059;BME280;4564;42.034;25.834;2022-08-14T02:41:18;99362.38;;;19.28;85.21
9059;BME280;4564;42.034;25.834;2022-08-14T02:43:44;99364.56;;;19.21;85.15
9059;BME280;4564;42.034;25.834;2022-08-14T02:46:12;99362.63;;;19.21;85.07
9059;BME280;4564;42.034;25.834;2022-08-14T02:48:42;99355.19;;;19.22;85.23
9059;BME280;4564;42.034;25.834;2022-08-14T02:51:09;99362.59;;;19.16;85.45
9059;BME280;4564;42.034;25.834;2022-08-14T02:53:37;99361.50;;;19.17;85.49
9059;BME280;4564;42.034;25.834;2022-08-14T02:56:05;99359.81;;;19.11;85.61
9059;BME280;4564;42.034;25.834;2022-08-14T02:58:32;99358.50;;;19.19;85.19
9059;BME280;4564;42.034;25.834;2022-08-14T03:01:03;99359.94;;;19.32;84.95
9059;BME280;4564;42.034;25.834;2022-08-14T03:03:30;99362.00;;;19.51;83.71
9059;BME280;4564;42.034;25.834;2022-08-14T03:05:59;99355.00;;;19.39;83.60
9059;BME280;4564;42.034;25.834;2022-08-14T03:08:25;99359.16;;;19.41;83.45
9059;BME280;4564;42.034;25.834;2022-08-14T03:10:55;99363.56;;;19.42;83.58
9059;BME280;4564;42.034;25.834;2022-08-14T03:13:22;99363.13;;;19.60;83.22
9059;BME280;4564;42.034;25.834;2022-08-14T03:15:49;99366.41;;;19.52;83.23
9059;BME280;4564;42.034;25.834;2022-08-14T03:18:16;99362.22;;;19.45;83.40
9059;BME280;4564;42.034;25.834;2022-08-14T03:20:43;99363.63;;;19.47;83.30
9059;BME280;4564;42.034;25.834;2022-08-14T03:23:11;99361.66;;;19.43;83.35
9059;BME280;4564;42.034;25.834;2022-08-14T03:25:38;99355.41;;;19.52;83.18
9059;BME280;4564;42.034;25.834;2022-08-14T03:28:06;99351.00;;;19.56;82.73
9059;BME280;4564;42.034;25.834;2022-08-14T03:30:33;99349.34;;;19.55;82.53
9059;BME280;4564;42.034;25.834;2022-08-14T03:33:00;99347.66;;;19.49;82.43
9059;BME280;4564;42.034;25.834;2022-08-14T03:35:27;99352.38;;;19.54;82.88
9059;BME280;4564;42.034;25.834;2022-08-14T03:37:55;99356.50;;;19.56;83.17
9059;BME280;4564;42.034;25.834;2022-08-14T03:40:23;99358.94;;;19.48;84.06
9059;BME280;4564;42.034;25.834;2022-08-14T03:42:50;99353.72;;;19.46;84.44
9059;BME280;4564;42.034;25.834;2022-08-14T03:45:17;99357.91;;;19.59;84.37
9059;BME280;4564;42.034;25.834;2022-08-14T03:47:43;99363.44;;;19.69;83.45
9059;BME280;4564;42.034;25.834;2022-08-14T03:50:10;99359.31;;;19.72;83.33
9059;BME280;4564;42.034;25.834;2022-08-14T03:52:38;99362.38;;;19.80;82.98
9059;BME280;4564;42.034;25.834;2022-08-14T03:55:05;99358.22;;;19.78;83.24
9059;BME280;4564;42.034;25.834;2022-08-14T03:57:33;99362.41;;;19.90;82.70
9059;BME280;4564;42.034;25.834;2022-08-14T04:00:00;99366.03;;;20.06;81.76
9059;BME280;4564;42.034;25.834;2022-08-14T04:05:50;99356.75;;;20.32;79.88
9059;BME280;4564;42.034;25.834;2022-08-14T04:08:17;99358.41;;;20.33;79.46
9059;BME280;4564;42.034;25.834;2022-08-14T04:10:44;99352.06;;;20.38;79.25
9059;BME280;4564;42.034;25.834;2022-08-14T04:13:12;99357.56;;;20.48;78.90
9059;BME280;4564;42.034;25.834;2022-08-14T04:15:42;99360.63;;;20.62;78.66
9059;BME280;4564;42.034;25.834;2022-08-14T04:18:09;99358.97;;;20.66;78.88
9059;BME280;4564;42.034;25.834;2022-08-14T04:20:36;99355.63;;;20.84;78.26
9059;BME280;4564;42.034;25.834;2022-08-14T04:23:04;99356.72;;;20.98;77.86
9059;BME280;4564;42.034;25.834;2022-08-14T04:25:31;99355.63;;;21.14;77.83
9059;BME280;4564;42.034;25.834;2022-08-14T04:28:00;99354.50;;;21.20;78.41
9059;BME280;4564;42.034;25.834;2022-08-14T04:30:29;99353.69;;;21.15;77.46
9059;BME280;4564;42.034;25.834;2022-08-14T04:32:56;99356.16;;;21.21;77.24
9059;BME280;4564;42.034;25.834;2022-08-14T04:35:23;99350.91;;;21.25;76.59
9059;BME280;4564;42.034;25.834;2022-08-14T04:37:49;99350.59;;;21.37;76.08
9059;BME280;4564;42.034;25.834;2022-08-14T04:40:33;99355.81;;;21.48;75.90
9059;BME280;4564;42.034;25.834;2022-08-14T04:43:17;99351.03;;;21.69;75.27
9059;BME280;4564;42.034;25.834;2022-08-14T04:46:04;99355.34;;;21.90;75.47
9059;BME280;4564;42.034;25.834;2022-08-14T04:48:31;99352.47;;;22.10;74.83
9059;BME280;4564;42.034;25.834;2022-08-14T04:50:58;99352.94;;;22.28;74.11
9059;BME280;4564;42.034;25.834;2022-08-14T04:53:26;99354.19;;;22.40;73.07
9059;BME280;4564;42.034;25.834;2022-08-14T04:55:53;99348.91;;;22.49;72.99
9059;BME280;4564;42.034;25.834;2022-08-14T04:58:21;99346.00;;;22.64;73.15
9059;BME280;4564;42.034;25.834;2022-08-14T05:00:48;99345.28;;;22.87;73.15
9059;BME280;4564;42.034;25.834;2022-08-14T05:03:17;99346.19;;;23.07;72.97
9059;BME280;4564;42.034;25.834;2022-08-14T05:05:45;99344.47;;;23.11;73.61
9059;BME280;4564;42.034;25.834;2022-08-14T05:08:12;99346.38;;;23.39;72.48
9059;BME280;4564;42.034;25.834;2022-08-14T05:10:40;99343.56;;;23.44;72.25
9059;BME280;4564;42.034;25.834;2022-08-14T05:13:07;99344.16;;;23.65;71.16
9059;BME280;4564;42.034;25.834;2022-08-14T05:15:34;99338.38;;;23.85;70.53
9059;BME280;4564;42.034;25.834;2022-08-14T05:18:02;99344.97;;;24.08;70.28
9059;BME280;4564;42.034;25.834;2022-08-14T05:20:30;99350.41;;;24.37;69.11
9059;BME280;4564;42.034;25.834;2022-08-14T05:22:57;99349.19;;;24.61;68.31
9059;BME280;4564;42.034;25.834;2022-08-14T05:25:24;99350.63;;;24.73;68.00
9059;BME280;4564;42.034;25.834;2022-08-14T05:27:51;99355.41;;;25.04;67.08
9059;BME280;4564;42.034;25.834;2022-08-14T05:30:17;99353.38;;;25.37;65.69
9059;BME280;4564;42.034;25.834;2022-08-14T05:32:44;99359.84;;;26.51;62.65
9059;BME280;4564;42.034;25.834;2022-08-14T05:35:11;99358.28;;;28.47;56.57
9059;BME280;4564;42.034;25.834;2022-08-14T05:37:39;99360.31;;;30.12;51.96
9059;BME280;4564;42.034;25.834;2022-08-14T05:40:07;99358.13;;;32.19;45.37
9059;BME280;4564;42.034;25.834;2022-08-14T05:42:34;99360.91;;;33.42;41.94
9059;BME280;4564;42.034;25.834;2022-08-14T05:45:02;99365.31;;;34.57;39.16
9059;BME280;4564;42.034;25.834;2022-08-14T05:47:29;99366.94;;;35.34;37.71
9059;BME280;4564;42.034;25.834;2022-08-14T05:49:56;99367.06;;;35.87;35.94
9059;BME280;4564;42.034;25.834;2022-08-14T05:52:22;99367.56;;;36.15;35.20
9059;BME280;4564;42.034;25.834;2022-08-14T05:54:50;99364.19;;;36.33;35.12
9059;BME280;4564;42.034;25.834;2022-08-14T05:57:17;99363.59;;;36.20;34.21
9059;BME280;4564;42.034;25.834;2022-08-14T05:59:44;99364.31;;;36.70;34.16
9059;BME280;4564;42.034;25.834;2022-08-14T06:02:10;99351.97;;;37.22;32.90
9059;BME280;4564;42.034;25.834;2022-08-14T06:04:37;99358.78;;;37.54;32.01
9059;BME280;4564;42.034;25.834;2022-08-14T06:07:04;99355.13;;;37.98;31.09
9059;BME280;4564;42.034;25.834;2022-08-14T06:09:30;99357.84;;;38.38;30.84
9059;BME280;4564;42.034;25.834;2022-08-14T06:11:58;99358.06;;;38.84;29.85
9059;BME280;4564;42.034;25.834;2022-08-14T06:14:25;99357.34;;;38.98;29.66
9059;BME280;4564;42.034;25.834;2022-08-14T06:16:52;99358.28;;;39.59;28.60
9059;BME280;4564;42.034;25.834;2022-08-14T06:19:19;99350.56;;;39.49;28.28
9059;BME280;4564;42.034;25.834;2022-08-14T06:21:45;99357.09;;;39.56;28.71
9059;BME280;4564;42.034;25.834;2022-08-14T06:24:12;99351.81;;;39.51;28.48
9059;BME280;4564;42.034;25.834;2022-08-14T06:26:38;99348.97;;;39.76;27.86
9059;BME280;4564;42.034;25.834;2022-08-14T06:29:07;99348.56;;;39.67;28.06
9059;BME280;4564;42.034;25.834;2022-08-14T06:31:34;99346.50;;;39.53;28.16
9059;BME280;4564;42.034;25.834;2022-08-14T06:34:01;99338.78;;;39.57;28.06
9059;BME280;4564;42.034;25.834;2022-08-14T06:36:27;99346.13;;;39.65;27.61
9059;BME280;4564;42.034;25.834;2022-08-14T06:38:54;99346.13;;;39.79;27.02
9059;BME280;4564;42.034;25.834;2022-08-14T06:41:21;99339.41;;;38.80;28.05
9059;BME280;4564;42.034;25.834;2022-08-14T06:43:48;99350.97;;;39.58;27.85
9059;BME280;4564;42.034;25.834;2022-08-14T06:46:16;99345.22;;;40.50;26.63
9059;BME280;4564;42.034;25.834;2022-08-14T06:48:43;99342.53;;;41.16;25.76
9059;BME280;4564;42.034;25.834;2022-08-14T06:51:09;99344.41;;;41.36;24.69
9059;BME280;4564;42.034;25.834;2022-08-14T06:53:36;99334.09;;;40.87;25.05
9059;BME280;4564;42.034;25.834;2022-08-14T06:56:03;99342.03;;;40.30;25.63
9059;BME280;4564;42.034;25.834;2022-08-14T06:58:30;99344.78;;;40.55;25.53
9059;BME280;4564;42.034;25.834;2022-08-14T07:00:57;99343.34;;;41.16;24.85
9059;BME280;4564;42.034;25.834;2022-08-14T07:03:42;99347.25;;;41.36;24.24
9059;BME280;4564;42.034;25.834;2022-08-14T07:06:26;99345.59;;;41.42;24.20
9059;BME280;4564;42.034;25.834;2022-08-14T07:08:54;99343.41;;;41.05;24.57
9059;BME280;4564;42.034;25.834;2022-08-14T07:11:21;99331.78;;;41.37;24.43
9059;BME280;4564;42.034;25.834;2022-08-14T07:13:47;99330.03;;;41.58;23.68
9059;BME280;4564;42.034;25.834;2022-08-14T07:16:14;99326.72;;;41.00;24.53
9059;BME280;4564;42.034;25.834;2022-08-14T07:18:42;99318.31;;;41.45;23.14
9059;BME280;4564;42.034;25.834;2022-08-14T07:21:09;99320.56;;;41.71;22.85
9059;BME280;4564;42.034;25.834;2022-08-14T07:23:36;99321.63;;;41.84;22.95
9059;BME280;4564;42.034;25.834;2022-08-14T07:26:03;99321.91;;;41.56;23.24
9059;BME280;4564;42.034;25.834;2022-08-14T07:28:31;99323.28;;;41.34;23.49
9059;BME280;4564;42.034;25.834;2022-08-14T07:30:59;99326.75;;;41.59;23.19
9059;BME280;4564;42.034;25.834;2022-08-14T07:33:27;99331.59;;;41.66;23.13
9059;BME280;4564;42.034;25.834;2022-08-14T07:35:56;99322.78;;;41.50;23.11
9059;BME280;4564;42.034;25.834;2022-08-14T07:38:23;99322.31;;;42.03;22.60
9059;BME280;4564;42.034;25.834;2022-08-14T07:40:52;99323.38;;;41.75;23.40
9059;BME280;4564;42.034;25.834;2022-08-14T07:43:18;99331.28;;;42.01;23.06
9059;BME280;4564;42.034;25.834;2022-08-14T07:45:45;99321.22;;;41.89;22.70
9059;BME280;4564;42.034;25.834;2022-08-14T07:51:35;99318.25;;;41.56;23.14
9059;BME280;4564;42.034;25.834;2022-08-14T07:54:04;99317.75;;;41.64;22.81
9059;BME280;4564;42.034;25.834;2022-08-14T07:56:31;99310.03;;;41.06;23.23
9059;BME280;4564;42.034;25.834;2022-08-14T07:58:57;99306.91;;;40.79;23.81
9059;BME280;4564;42.034;25.834;2022-08-14T08:01:24;99307.13;;;40.05;24.35
9059;BME280;4564;42.034;25.834;2022-08-14T08:03:55;99310.38;;;40.10;24.62
9059;BME280;4564;42.034;25.834;2022-08-14T08:06:23;99309.91;;;40.37;24.95
9059;BME280;4564;42.034;25.834;2022-08-14T08:08:52;99298.59;;;40.01;24.38
9059;BME280;4564;42.034;25.834;2022-08-14T08:11:22;99299.81;;;39.68;25.79
9059;BME280;4564;42.034;25.834;2022-08-14T08:13:49;99288.03;;;39.13;25.77
9059;BME280;4564;42.034;25.834;2022-08-14T08:16:16;99288.00;;;38.99;25.98
9059;BME280;4564;42.034;25.834;2022-08-14T08:18:45;99295.72;;;39.16;26.46
9059;BME280;4564;42.034;25.834;2022-08-14T08:21:12;99297.31;;;38.96;26.67
9059;BME280;4564;42.034;25.834;2022-08-14T08:23:39;99292.03;;;38.98;26.15
9059;BME280;4564;42.034;25.834;2022-08-14T08:26:07;99291.13;;;38.69;26.95
9059;BME280;4564;42.034;25.834;2022-08-14T08:28:34;99292.31;;;38.61;27.15
9059;BME280;4564;42.034;25.834;2022-08-14T08:31:02;99286.53;;;38.36;27.13
9059;BME280;4564;42.034;25.834;2022-08-14T08:33:30;99284.69;;;38.00;27.88
9059;BME280;4564;42.034;25.834;2022-08-14T08:35:57;99272.28;;;37.60;27.95
9059;BME280;4564;42.034;25.834;2022-08-14T08:38:25;99274.75;;;37.21;28.58
9059;BME280;4564;42.034;25.834;2022-08-14T08:40:53;99271.47;;;36.82;28.82
9059;BME280;4564;42.034;25.834;2022-08-14T08:43:22;99268.47;;;37.02;28.86
9059;BME280;4564;42.034;25.834;2022-08-14T08:45:52;99257.91;;;36.98;29.08
9059;BME280;4564;42.034;25.834;2022-08-14T08:48:20;99260.97;;;36.79;29.29
9059;BME280;4564;42.034;25.834;2022-08-14T08:50:46;99251.28;;;36.47;29.92
9059;BME280;4564;42.034;25.834;2022-08-14T08:53:13;99252.81;;;36.41;30.05
9059;BME280;4564;42.034;25.834;2022-08-14T08:55:41;99255.84;;;36.25;30.27
9059;BME280;4564;42.034;25.834;2022-08-14T08:58:08;99254.28;;;36.01;30.74
9059;BME280;4564;42.034;25.834;2022-08-14T09:00:37;99251.88;;;36.03;30.64
9059;BME280;4564;42.034;25.834;2022-08-14T09:03:05;99240.59;;;36.03;30.41
9059;BME280;4564;42.034;25.834;2022-08-14T09:05:32;99233.63;;;35.67;31.02
9059;BME280;4564;42.034;25.834;2022-08-14T09:08:09;99223.50;;;35.40;31.06
9059;BME280;4564;42.034;25.834;2022-08-14T09:10:36;99222.38;;;35.22;31.75
9059;BME280;4564;42.034;25.834;2022-08-14T09:13:03;99221.84;;;35.16;31.56
9059;BME280;4564;42.034;25.834;2022-08-14T09:15:29;99217.81;;;34.91;31.88
9059;BME280;4564;42.034;25.834;2022-08-14T09:17:57;99214.81;;;35.03;32.00
9059;BME280;4564;42.034;25.834;2022-08-14T09:20:24;99206.34;;;34.80;32.76
9059;BME280;4564;42.034;25.834;2022-08-14T09:22:51;99202.44;;;34.88;32.76
9059;BME280;4564;42.034;25.834;2022-08-14T09:25:19;99203.63;;;35.10;32.62
9059;BME280;4564;42.034;25.834;2022-08-14T09:31:07;99192.88;;;35.42;32.49
9059;BME280;4564;42.034;25.834;2022-08-14T09:33:49;99182.59;;;34.81;32.46
9059;BME280;4564;42.034;25.834;2022-08-14T09:36:24;99192.66;;;34.82;33.09
9059;BME280;4564;42.034;25.834;2022-08-14T09:38:55;99184.81;;;34.95;32.60
9059;BME280;4564;42.034;25.834;2022-08-14T09:41:29;99174.78;;;35.20;32.06
9059;BME280;4564;42.034;25.834;2022-08-14T09:44:02;99162.69;;;35.20;32.39
9059;BME280;4564;42.034;25.834;2022-08-14T09:46:31;99177.34;;;35.29;33.24
9059;BME280;4564;42.034;25.834;2022-08-14T09:48:59;99172.13;;;35.31;33.48
9059;BME280;4564;42.034;25.834;2022-08-14T09:51:26;99169.09;;;35.69;32.43
9059;BME280;4564;42.034;25.834;2022-08-14T09:54:01;99168.16;;;35.88;32.07
9059;BME280;4564;42.034;25.834;2022-08-14T09:56:41;99158.66;;;36.03;31.70
9059;BME280;4564;42.034;25.834;2022-08-14T09:59:10;99152.34;;;35.84;32.34
9059;BME280;4564;42.034;25.834;2022-08-14T10:01:38;99168.28;;;35.69;32.53
9059;BME280;4564;42.034;25.834;2022-08-14T10:04:16;99161.81;;;35.68;31.96
9059;BME280;4564;42.034;25.834;2022-08-14T10:06:44;99153.78;;;35.44;32.72
9059;BME280;4564;42.034;25.834;2022-08-14T10:09:11;99145.63;;;35.13;32.65
9059;BME280;4564;42.034;25.834;2022-08-14T10:11:38;99152.28;;;35.01;33.25
9059;BME280;4564;42.034;25.834;2022-08-14T10:14:12;99147.22;;;34.87;33.64
9059;BME280;4564;42.034;25.834;2022-08-14T10:16:41;99158.81;;;34.60;33.86
9059;BME280;4564;42.034;25.834;2022-08-14T10:19:11;99147.53;;;34.60;34.17
9059;BME280;4564;42.034;25.834;2022-08-14T10:21:39;99142.63;;;34.57;34.24
9059;BME280;4564;42.034;25.834;2022-08-14T10:24:08;99136.88;;;34.49;34.47
9059;BME280;4564;42.034;25.834;2022-08-14T10:26:35;99134.28;;;34.41;33.94
9059;BME280;4564;42.034;25.834;2022-08-14T10:29:04;99141.75;;;34.52;34.16
9059;BME280;4564;42.034;25.834;2022-08-14T10:31:31;99145.09;;;34.81;33.86
9059;BME280;4564;42.034;25.834;2022-08-14T10:34:02;99129.91;;;34.89;33.15
9059;BME280;4564;42.034;25.834;2022-08-14T10:36:31;99127.06;;;34.85;33.63
9059;BME280;4564;42.034;25.834;2022-08-14T10:39:00;99126.78;;;34.94;33.15
9059;BME280;4564;42.034;25.834;2022-08-14T10:41:34;99131.03;;;35.07;33.34
9059;BME280;4564;42.034;25.834;2022-08-14T10:44:05;99122.81;;;34.99;33.14
9059;BME280;4564;42.034;25.834;2022-08-14T10:46:37;99118.53;;;34.82;33.23
9059;BME280;4564;42.034;25.834;2022-08-14T10:49:05;99107.13;;;34.75;32.55
9059;BME280;4564;42.034;25.834;2022-08-14T10:51:35;99105.63;;;34.16;33.88
9059;BME280;4564;42.034;25.834;2022-08-14T10:54:04;99111.97;;;34.13;33.88
9059;BME280;4564;42.034;25.834;2022-08-14T10:56:32;99122.97;;;34.37;34.13
9059;BME280;4564;42.034;25.834;2022-08-14T10:59:00;99119.69;;;34.35;34.09
9059;BME280;4564;42.034;25.834;2022-08-14T11:01:29;99132.78;;;34.47;34.04
9059;BME280;4564;42.034;25.834;2022-08-14T11:03:55;99144.34;;;34.19;33.98
9059;BME280;4564;42.034;25.834;2022-08-14T11:06:22;99137.22;;;34.06;34.02
9059;BME280;4564;42.034;25.834;2022-08-14T11:08:50;99138.31;;;33.28;35.06
9059;BME280;4564;42.034;25.834;2022-08-14T11:11:17;99142.84;;;33.17;35.95
9059;BME280;4564;42.034;25.834;2022-08-14T11:13:45;99144.56;;;33.06;36.08
9059;BME280;4564;42.034;25.834;2022-08-14T11:16:12;99136.97;;;32.90;36.97
9059;BME280;4564;42.034;25.834;2022-08-14T11:18:42;99136.16;;;32.74;37.06
9059;BME280;4564;42.034;25.834;2022-08-14T11:21:11;99147.63;;;32.38;38.02
9059;BME280;4564;42.034;25.834;2022-08-14T11:23:39;99148.59;;;32.02;38.31
9059;BME280;4564;42.034;25.834;2022-08-14T11:26:07;99144.66;;;31.63;38.97
9059;BME280;4564;42.034;25.834;2022-08-14T11:28:36;99161.72;;;31.46;39.76
9059;BME280;4564;42.034;25.834;2022-08-14T11:31:04;99161.50;;;31.26;40.08
9059;BME280;4564;42.034;25.834;2022-08-14T11:33:33;99170.13;;;30.85;41.25
9059;BME280;4564;42.034;25.834;2022-08-14T11:36:02;99187.84;;;30.65;41.72
9059;BME280;4564;42.034;25.834;2022-08-14T11:38:34;99194.59;;;30.52;42.02
9059;BME280;4564;42.034;25.834;2022-08-14T11:41:01;99208.50;;;30.39;42.45
9059;BME280;4564;42.034;25.834;2022-08-14T11:43:29;99217.44;;;30.21;42.31
9059;BME280;4564;42.034;25.834;2022-08-14T11:45:56;99231.78;;;29.78;43.10
9059;BME280;4564;42.034;25.834;2022-08-14T11:56:20;99224.22;;;28.56;45.70
9059;BME280;4564;42.034;25.834;2022-08-14T11:58:51;99225.53;;;28.67;45.13
9059;BME280;4564;42.034;25.834;2022-08-14T12:01:22;99215.34;;;28.71;44.62
9059;BME280;4564;42.034;25.834;2022-08-14T12:03:51;99222.50;;;28.34;46.09
9059;BME280;4564;42.034;25.834;2022-08-14T12:06:18;99218.88;;;28.25;47.15
9059;BME280;4564;42.034;25.834;2022-08-14T12:08:46;99221.34;;;28.01;49.20
9059;BME280;4564;42.034;25.834;2022-08-14T12:11:15;99215.44;;;27.93;49.68
9059;BME280;4564;42.034;25.834;2022-08-14T12:13:43;99218.88;;;27.90;50.67
9059;BME280;4564;42.034;25.834;2022-08-14T12:16:10;99222.81;;;27.98;51.27
9059;BME280;4564;42.034;25.834;2022-08-14T12:18:38;99223.63;;;27.81;52.81
9059;BME280;4564;42.034;25.834;2022-08-14T12:21:09;99233.97;;;27.72;53.31
9059;BME280;4564;42.034;25.834;2022-08-14T12:23:36;99244.91;;;27.51;55.66
9059;BME280;4564;42.034;25.834;2022-08-14T12:26:04;99246.19;;;27.45;59.24
9059;BME280;4564;42.034;25.834;2022-08-14T12:28:31;99245.19;;;27.41;60.35
9059;BME280;4564;42.034;25.834;2022-08-14T12:30:59;99250.03;;;27.19;63.70
9059;BME280;4564;42.034;25.834;2022-08-14T12:33:36;99236.31;;;26.91;64.99
9059;BME280;4564;42.034;25.834;2022-08-14T12:36:06;99231.47;;;26.74;64.63
9059;BME280;4564;42.034;25.834;2022-08-14T12:38:34;99232.19;;;26.58;65.62
9059;BME280;4564;42.034;25.834;2022-08-14T12:41:03;99223.59;;;26.46;67.12
9059;BME280;4564;42.034;25.834;2022-08-14T12:43:43;99217.41;;;26.49;68.81
9059;BME280;4564;42.034;25.834;2022-08-14T12:46:19;99217.41;;;26.49;69.79
9059;BME280;4564;42.034;25.834;2022-08-14T12:48:46;99207.44;;;26.56;68.11
9059;BME280;4564;42.034;25.834;2022-08-14T12:51:14;99196.69;;;26.63;65.71
9059;BME280;4564;42.034;25.834;2022-08-14T12:53:42;99189.66;;;26.66;67.29
9059;BME280;4564;42.034;25.834;2022-08-14T12:56:09;99186.16;;;26.83;68.34
9059;BME280;4564;42.034;25.834;2022-08-14T12:58:36;99178.69;;;26.69;67.11
9059;BME280;4564;42.034;25.834;2022-08-14T13:01:04;99187.81;;;26.61;65.96
9059;BME280;4564;42.034;25.834;2022-08-14T13:03:34;99187.75;;;26.75;66.60
9059;BME280;4564;42.034;25.834;2022-08-14T13:06:01;99208.22;;;26.79;66.00
9059;BME280;4564;42.034;25.834;2022-08-14T13:08:28;99213.88;;;26.88;66.69
9059;BME280;4564;42.034;25.834;2022-08-14T13:10:56;99231.47;;;27.05;65.00
9059;BME280;4564;42.034;25.834;2022-08-14T13:13:23;99236.44;;;26.86;65.54
9059;BME280;4564;42.034;25.834;2022-08-14T13:15:57;99258.34;;;26.79;65.76
9059;BME280;4564;42.034;25.834;2022-08-14T13:18:25;99269.50;;;26.57;65.91
9059;BME280;4564;42.034;25.834;2022-08-14T13:20:53;99278.25;;;26.42;67.45
9059;BME280;4564;42.034;25.834;2022-08-14T13:23:23;99289.84;;;26.21;67.05
9059;BME280;4564;42.034;25.834;2022-08-14T13:25:51;99290.16;;;26.34;67.95
9059;BME280;4564;42.034;25.834;2022-08-14T13:31:41;99290.16;;;26.56;67.03
9059;BME280;4564;42.034;25.834;2022-08-14T13:34:11;99280.53;;;26.40;67.11
9059;BME280;4564;42.034;25.834;2022-08-14T13:36:39;99299.44;;;26.51;67.08